createdAt,value
2019-04-05T00:04:01.463Z,3.0
2019-04-05T00:09:01.396Z,2.9
2019-04-05T00:14:01.579Z,1.5
2019-04-05T00:19:01.441Z,1.5
2019-04-05T00:24:01.596Z,2.8
2019-04-05T00:29:01.415Z,2.7
2019-04-05T00:34:01.451Z,2.2
2019-04-05T00:39:01.456Z,2.2
2019-04-05T00:44:01.544Z,2.3
2019-04-05T00:49:01.452Z,2.3
2019-04-05T00:54:06.646Z,1.4
2019-04-05T00:59:01.462Z,1.4
2019-04-05T01:04:01.485Z,3.2
2019-04-05T01:09:01.490Z,3.1
2019-04-05T01:14:01.549Z,2.5
2019-04-05T01:19:04.476Z,2.5
2019-04-05T01:24:01.574Z,1.5
2019-04-05T01:29:01.509Z,1.6
2019-04-05T01:34:01.562Z,1.4
2019-04-05T01:39:01.487Z,1.4
2019-04-05T01:44:01.451Z,1.4
2019-04-05T01:54:01.546Z,2.0
2019-04-05T01:59:01.486Z,2.0
2019-04-05T02:05:01.583Z,1.5
2019-04-05T02:15:01.794Z,1.5
2019-04-05T02:20:01.452Z,1.5
2019-04-05T02:25:01.517Z,1.5
2019-04-05T02:30:01.451Z,1.5
2019-04-05T02:35:01.616Z,1.5
2019-04-05T02:45:01.627Z,1.5
2019-04-05T02:55:01.648Z,1.5
2019-04-05T03:00:01.557Z,1.4
2019-04-05T03:05:01.538Z,1.5
2019-04-05T03:15:01.672Z,1.5
2019-04-05T03:20:01.485Z,1.5
2019-04-05T03:30:01.588Z,1.5
2019-04-05T03:45:01.572Z,1.5
2019-04-05T04:00:01.540Z,1.5
2019-04-05T04:05:01.576Z,1.5
2019-04-05T04:10:01.522Z,1.6
2019-04-05T04:15:01.529Z,1.6
2019-04-05T04:20:01.464Z,1.6
2019-04-05T04:30:01.841Z,1.5
2019-04-05T04:45:13.269Z,1.5
2019-04-05T04:55:01.602Z,1.5
2019-04-05T05:00:01.485Z,1.5
2019-04-05T05:15:01.529Z,1.5
2019-04-05T05:20:02.770Z,1.5
2019-04-05T05:30:01.517Z,1.5
2019-04-05T05:40:01.521Z,1.5
2019-04-05T05:45:01.762Z,1.5
2019-04-05T06:00:01.600Z,1.5
2019-04-05T06:15:01.452Z,1.5
2019-04-05T06:20:01.451Z,2.2
2019-04-05T06:25:01.607Z,2.2
2019-04-05T06:30:01.492Z,2.2
2019-04-05T06:35:01.520Z,4.2
2019-04-05T06:40:01.499Z,4.5
2019-04-05T06:45:01.803Z,4.4
2019-04-05T06:50:01.436Z,6.8
2019-04-05T06:55:01.629Z,6.8
2019-04-05T07:00:01.623Z,6.1
2019-04-05T07:05:01.457Z,6.1
2019-04-05T07:11:01.441Z,7.7
2019-04-05T07:16:01.505Z,7.6
2019-04-05T07:21:01.446Z,8.9
2019-04-05T07:26:01.581Z,8.8
2019-04-05T07:31:01.445Z,8.9
2019-04-05T07:36:03.956Z,8.8
2019-04-05T07:41:01.445Z,11.0
2019-04-05T07:46:01.518Z,10.9
2019-04-05T07:51:01.432Z,11.8
2019-04-05T07:56:01.453Z,11.8
2019-04-05T08:01:01.440Z,14.1
2019-04-05T08:06:01.568Z,14.1
2019-04-05T08:11:01.462Z,14.2
2019-04-05T08:16:01.817Z,14.2
2019-04-05T08:21:01.454Z,15.1
2019-04-05T08:26:01.506Z,15.1
2019-04-05T08:31:01.432Z,16.2
2019-04-05T08:36:01.575Z,16.1
2019-04-05T08:41:01.436Z,16.3
2019-04-05T08:46:01.528Z,16.2
2019-04-05T08:51:01.437Z,16.8
2019-04-05T08:56:01.489Z,16.8
2019-04-05T09:01:01.451Z,17.9
2019-04-05T09:06:01.504Z,17.8
2019-04-05T09:11:01.455Z,18.8
2019-04-05T09:16:01.563Z,18.8
2019-04-05T09:21:01.496Z,18.5
2019-04-05T09:26:01.521Z,18.5
2019-04-05T09:31:01.440Z,19.1
2019-04-05T09:42:01.508Z,20.8
2019-04-05T09:47:01.501Z,20.9
2019-04-05T09:52:01.446Z,22.1
2019-04-05T09:57:01.550Z,22.1
2019-04-05T10:02:01.479Z,22.2
2019-04-05T10:07:01.527Z,22.0
2019-04-05T10:12:01.451Z,23.1
2019-04-05T10:17:01.651Z,23.1
2019-04-05T10:22:01.521Z,24.7
2019-04-05T10:27:01.816Z,24.9
2019-04-05T10:32:01.437Z,24.9
2019-04-05T10:37:01.547Z,24.3
2019-04-05T10:42:04.359Z,24.5
2019-04-05T10:47:01.515Z,24.6
2019-04-05T10:52:01.458Z,24.7
2019-04-05T10:57:02.515Z,24.7
2019-04-05T11:02:01.745Z,25.4
2019-04-05T11:07:01.592Z,25.2
2019-04-05T11:12:01.429Z,26.0
2019-04-05T11:17:05.363Z,26.2
2019-04-05T11:22:01.441Z,26.3
2019-04-05T11:27:01.584Z,26.2
2019-04-05T11:32:01.455Z,27.9
2019-04-05T11:37:03.289Z,28.0
2019-04-05T11:42:01.435Z,26.9
2019-04-05T11:52:01.584Z,28.2
2019-04-05T12:02:01.548Z,27.0
2019-04-05T12:07:01.567Z,27.3
2019-04-05T12:12:01.475Z,26.8
2019-04-05T12:17:03.404Z,26.9
2019-04-05T12:22:09.224Z,27.1
2019-04-05T12:27:05.821Z,27.1
2019-04-05T12:32:01.911Z,27.4
2019-04-05T12:37:01.574Z,27.3
2019-04-05T12:42:01.448Z,26.7
2019-04-05T12:47:01.580Z,26.7
2019-04-05T12:52:01.441Z,27.9
2019-04-05T12:57:01.498Z,27.9
2019-04-05T13:02:01.449Z,27.6
2019-04-05T13:12:01.520Z,28.0
2019-04-05T13:17:03.032Z,27.9
2019-04-05T13:22:03.808Z,28.2
2019-04-05T13:27:02.509Z,28.2
2019-04-05T13:32:01.445Z,28.2
2019-04-05T13:37:02.212Z,28.2
2019-04-05T13:42:02.748Z,28.5
2019-04-05T13:47:01.505Z,28.7
2019-04-05T13:52:01.444Z,27.7
2019-04-05T13:57:01.554Z,27.8
2019-04-05T14:07:04.199Z,28.7
2019-04-05T14:12:01.450Z,28.8
2019-04-05T14:22:09.529Z,29.2
2019-04-05T14:27:04.329Z,29.2
2019-04-05T14:37:01.434Z,28.3
2019-04-05T14:42:15.511Z,28.0
2019-04-05T14:47:01.519Z,27.8
2019-04-05T14:52:02.409Z,27.0
2019-04-05T14:57:06.363Z,27.2
2019-04-05T15:02:01.461Z,27.2
2019-04-05T15:08:01.571Z,26.4
2019-04-05T15:13:01.553Z,27.2
2019-04-05T15:18:01.430Z,27.1
2019-04-05T15:23:01.566Z,28.1
2019-04-05T15:28:01.485Z,27.8
2019-04-05T15:33:01.563Z,27.1
2019-04-05T15:38:02.501Z,27.2
2019-04-05T15:43:01.508Z,27.0
2019-04-05T15:48:01.484Z,26.0
2019-04-05T15:53:03.193Z,25.1
2019-04-05T15:59:05.060Z,25.3
2019-04-05T16:04:03.674Z,24.4
2019-04-05T16:09:01.450Z,24.1
2019-04-05T16:14:01.519Z,24.2
2019-04-05T16:19:01.514Z,24.4
2019-04-05T16:24:01.606Z,24.2
2019-04-05T16:29:01.436Z,23.9
2019-04-05T16:34:01.462Z,23.9
2019-04-05T16:39:01.446Z,23.9
2019-04-05T16:44:01.664Z,23.7
2019-04-05T16:49:01.437Z,23.9
2019-04-05T16:54:01.457Z,24.5
2019-04-05T16:59:01.445Z,24.7
2019-04-05T17:04:01.613Z,24.3
2019-04-05T17:09:01.434Z,24.7
2019-04-05T17:14:01.451Z,23.7
2019-04-05T17:19:01.448Z,23.9
2019-04-05T17:24:01.517Z,22.9
2019-04-05T17:29:01.426Z,22.8
2019-04-05T17:34:01.502Z,22.4
2019-04-05T17:39:02.570Z,22.3
2019-04-05T17:44:01.568Z,21.4
2019-04-05T17:54:01.453Z,20.6
2019-04-05T17:59:01.449Z,20.3
2019-04-05T18:04:01.510Z,19.2
2019-04-05T18:09:01.460Z,19.2
2019-04-05T18:14:01.506Z,18.7
2019-04-05T18:19:01.435Z,18.5
2019-04-05T18:24:01.575Z,17.9
2019-04-05T18:29:01.432Z,18.0
2019-04-05T18:34:01.525Z,17.5
2019-04-05T18:39:01.471Z,17.4
2019-04-05T18:44:01.509Z,17.1
2019-04-05T18:55:01.637Z,16.9
2019-04-05T19:00:01.445Z,16.5
2019-04-05T19:05:01.580Z,16.7
2019-04-05T19:10:01.513Z,16.2
2019-04-05T19:15:01.528Z,16.1
2019-04-05T19:20:01.449Z,15.6
2019-04-05T19:25:04.672Z,15.7
2019-04-05T19:50:00.859Z,16.2
2019-04-05T19:55:00.763Z,16.1
2019-04-05T20:00:00.757Z,14.3
2019-04-05T20:05:00.890Z,14.6
2019-04-05T20:10:00.757Z,13.9
2019-04-05T20:15:00.743Z,14.0
2019-04-05T20:20:05.783Z,12.8
2019-04-05T20:25:00.925Z,12.9
2019-04-05T20:30:00.753Z,13.1
2019-04-05T20:35:00.868Z,11.6
2019-04-05T20:40:00.776Z,11.3
2019-04-05T20:45:00.800Z,11.2
2019-04-05T20:50:01.175Z,11.0
2019-04-05T20:55:05.850Z,10.9
2019-04-05T21:00:00.813Z,11.0
2019-04-05T21:05:00.927Z,10.0
2019-04-05T21:10:00.807Z,9.1
2019-04-05T21:15:00.861Z,9.1
2019-04-05T21:20:01.176Z,8.2
2019-04-05T21:25:01.374Z,8.1
2019-04-05T21:30:00.932Z,8.2
2019-04-05T21:35:00.894Z,7.4
2019-04-05T21:40:00.829Z,7.4
2019-04-05T21:45:00.908Z,7.5
2019-04-05T21:55:00.865Z,7.8
2019-04-05T22:00:00.810Z,7.7
2019-04-05T22:05:01.762Z,6.9
2019-04-05T22:10:00.794Z,5.5
2019-04-05T22:15:00.924Z,5.6
2019-04-05T22:20:00.833Z,6.4
2019-04-05T22:25:00.960Z,6.4
2019-04-05T22:30:00.804Z,6.4
2019-04-05T22:35:00.942Z,6.2
2019-04-05T22:40:00.805Z,4.0
2019-04-05T22:45:05.941Z,4.0
2019-04-05T22:50:00.812Z,3.1
2019-04-05T22:55:12.281Z,3.2
2019-04-05T23:00:00.821Z,3.1
2019-04-05T23:05:01.422Z,1.7
2019-04-05T23:10:00.977Z,2.3
2019-04-05T23:15:00.949Z,2.3
2019-04-05T23:20:00.900Z,2.3
2019-04-05T23:25:00.991Z,2.3
2019-04-05T23:30:00.905Z,2.3
2019-04-05T23:35:01.397Z,1.7
2019-04-05T23:40:00.869Z,1.7
2019-04-05T23:45:00.903Z,1.7
2019-04-05T23:50:00.867Z,1.8
2019-04-05T23:55:00.982Z,1.8
